Bowdoinham, Maine
Current Conditions -  °F | °C
As of 8:53 AM on Sunday 21 Dec 2014 (Local Time) from KIWI Reporting Station
Overcast Overcast  
Wind Chill: 25°   Ceiling: 4100
Heat Index: 25°   Visibility: 10mi
Dew Point: 20°   Wind: 3mph
Humidity: 81%   Direction: NA
Pressure: 30.38"   Gusts: NA
Location:  44.01°N, 69.9°W
Report Text: KIWI 211353Z AUTO VRB03KT 10SM OVC041 M04/M07 A3038 RMK AO2 SLP287 T10391067
Loading
Personal Weather Stations






























Interactive Weather Map New forecast layout! Learn more

10-Day Weather Forecast

Advertisements
Track Severe Weather on mobile